createdAt,value
2019-05-11T00:01:03.978Z,99.90
2019-05-11T00:03:31.535Z,99.90
2019-05-11T00:05:59.153Z,99.90
2019-05-11T00:08:26.731Z,99.90
2019-05-11T00:10:54.266Z,99.90
2019-05-11T00:13:21.843Z,99.90
2019-05-11T00:15:49.947Z,99.90
2019-05-11T00:18:17.509Z,99.90
2019-05-11T00:20:45.136Z,99.90
2019-05-11T00:23:12.690Z,99.90
2019-05-11T00:25:40.331Z,99.90
2019-05-11T00:28:07.930Z,99.90
2019-05-11T00:30:35.534Z,99.90
2019-05-11T00:33:03.081Z,99.90
2019-05-11T00:35:30.654Z,99.90
2019-05-11T00:37:58.190Z,99.90
2019-05-11T00:40:45.173Z,99.90
2019-05-11T00:43:12.702Z,99.90
2019-05-11T00:45:40.273Z,99.90
2019-05-11T00:48:07.830Z,99.90
2019-05-11T00:50:39.114Z,99.90
2019-05-11T00:53:04.724Z,99.90
2019-05-11T00:55:32.280Z,99.90
2019-05-11T00:57:59.826Z,99.90
2019-05-11T01:00:27.472Z,99.90
2019-05-11T01:02:55.012Z,99.90
2019-05-11T01:05:22.568Z,99.90
2019-05-11T01:07:50.121Z,99.90
2019-05-11T01:10:25.512Z,99.90
2019-05-11T01:12:46.923Z,99.90
2019-05-11T01:15:14.533Z,99.90
2019-05-11T01:17:42.137Z,99.90
2019-05-11T01:20:09.711Z,99.90
2019-05-11T01:22:37.340Z,99.90
2019-05-11T01:25:05.369Z,99.90
2019-05-11T01:27:32.901Z,99.90
2019-05-11T01:30:00.486Z,99.90
2019-05-11T01:32:28.034Z,99.90
2019-05-11T01:34:55.743Z,99.90
2019-05-11T01:37:23.311Z,99.90
2019-05-11T01:39:50.859Z,99.90
2019-05-11T01:42:18.419Z,99.90
2019-05-11T01:44:45.952Z,99.90
2019-05-11T01:47:13.523Z,99.90
2019-05-11T01:49:41.156Z,99.90
2019-05-11T01:52:08.713Z,99.90
2019-05-11T01:54:36.267Z,99.90
2019-05-11T01:57:03.872Z,99.90
2019-05-11T01:59:31.415Z,99.90
2019-05-11T02:01:58.968Z,99.90
2019-05-11T02:04:26.517Z,99.90
2019-05-11T02:06:54.052Z,99.90
2019-05-11T02:09:21.628Z,99.90
2019-05-11T02:11:49.238Z,99.90
2019-05-11T02:14:16.780Z,99.90
2019-05-11T02:16:44.302Z,99.90
2019-05-11T02:19:11.866Z,99.90
2019-05-11T02:21:39.471Z,99.90
2019-05-11T02:24:06.998Z,99.90
2019-05-11T02:26:34.577Z,99.90
2019-05-11T02:29:02.115Z,99.90
2019-05-11T02:31:29.666Z,99.90
2019-05-11T02:33:57.229Z,99.90
2019-05-11T02:36:24.756Z,99.90
2019-05-11T02:38:52.408Z,99.90
2019-05-11T02:41:34.503Z,99.90
2019-05-11T02:43:51.879Z,99.90
2019-05-11T02:46:19.436Z,99.90
2019-05-11T02:48:46.986Z,99.90
2019-05-11T02:51:14.551Z,99.90
2019-05-11T02:53:42.555Z,99.90
2019-05-11T02:56:10.138Z,99.90
2019-05-11T02:58:37.727Z,99.90
2019-05-11T03:01:05.298Z,99.90
2019-05-11T03:03:32.862Z,99.90
2019-05-11T03:06:00.417Z,99.90
2019-05-11T03:08:27.955Z,99.90
2019-05-11T03:10:55.537Z,99.90
2019-05-11T03:13:23.060Z,99.90
2019-05-11T03:15:53.531Z,99.90
2019-05-11T03:18:21.101Z,99.90
2019-05-11T03:20:48.641Z,99.90
2019-05-11T03:23:16.194Z,99.90
2019-05-11T03:25:43.739Z,99.90
2019-05-11T03:28:11.282Z,99.90
2019-05-11T03:30:38.854Z,99.90
2019-05-11T03:33:06.376Z,99.90
2019-05-11T03:35:33.942Z,99.90
2019-05-11T03:38:01.462Z,99.90
2019-05-11T03:40:29.010Z,99.90
2019-05-11T03:42:56.558Z,99.90
2019-05-11T03:45:24.100Z,99.90
2019-05-11T03:47:51.723Z,99.90
2019-05-11T03:50:19.264Z,99.90
2019-05-11T03:52:46.824Z,99.90
2019-05-11T03:55:14.354Z,99.90
2019-05-11T03:57:41.916Z,99.90
2019-05-11T04:00:09.446Z,99.90
2019-05-11T04:02:37.004Z,99.90
2019-05-11T04:05:04.924Z,99.90
2019-05-11T04:07:32.494Z,99.90
2019-05-11T04:10:00.018Z,99.90
2019-05-11T04:12:34.958Z,99.90
2019-05-11T04:14:56.870Z,99.90
2019-05-11T04:17:24.401Z,99.90
2019-05-11T04:19:51.977Z,99.90
2019-05-11T04:22:19.591Z,99.90
2019-05-11T04:24:47.117Z,99.90
2019-05-11T04:27:19.379Z,99.90
2019-05-11T04:29:43.971Z,99.90
2019-05-11T04:32:11.546Z,99.90
2019-05-11T04:34:39.086Z,99.90
2019-05-11T04:37:06.642Z,99.90
2019-05-11T04:39:34.165Z,99.90
2019-05-11T04:42:01.721Z,99.90
2019-05-11T04:44:29.285Z,99.90
2019-05-11T04:46:56.826Z,99.90
2019-05-11T04:49:24.385Z,99.90
2019-05-11T04:51:51.915Z,99.90
2019-05-11T04:54:19.481Z,99.90
2019-05-11T04:56:47.039Z,99.90
2019-05-11T04:59:14.576Z,99.90
2019-05-11T05:01:42.157Z,99.90
2019-05-11T05:04:14.383Z,99.90
2019-05-11T05:06:39.114Z,99.90
2019-05-11T05:09:06.676Z,99.90
2019-05-11T05:11:36.509Z,99.90
2019-05-11T05:14:08.468Z,99.90
2019-05-11T05:16:32.800Z,99.90
2019-05-11T05:19:00.351Z,99.90
2019-05-11T05:21:27.884Z,99.90
2019-05-11T05:23:55.444Z,99.90
2019-05-11T05:26:23.015Z,99.90
2019-05-11T05:28:50.582Z,99.90
2019-05-11T05:31:18.106Z,99.90
2019-05-11T05:33:45.662Z,99.90
2019-05-11T05:36:13.211Z,99.90
2019-05-11T05:38:40.762Z,99.90
2019-05-11T05:41:08.299Z,99.90
2019-05-11T05:43:35.865Z,99.90
2019-05-11T05:46:03.412Z,99.90
2019-05-11T05:48:30.951Z,99.90
2019-05-11T05:50:58.524Z,99.90
2019-05-11T05:53:26.076Z,99.90
2019-05-11T05:55:53.620Z,99.90
2019-05-11T05:58:21.202Z,99.90
2019-05-11T06:00:48.763Z,99.90
2019-05-11T06:03:16.287Z,99.90
2019-05-11T06:05:43.848Z,99.90
2019-05-11T06:08:11.379Z,99.90
2019-05-11T06:10:38.978Z,99.90
2019-05-11T06:13:06.558Z,99.90
2019-05-11T06:15:34.121Z,99.90
2019-05-11T06:18:01.709Z,99.90
2019-05-11T06:20:29.854Z,99.90
2019-05-11T06:22:57.417Z,99.90
2019-05-11T06:25:24.953Z,99.90
2019-05-11T06:27:52.525Z,99.90
2019-05-11T06:30:20.075Z,99.90
2019-05-11T06:32:47.631Z,99.90
2019-05-11T06:35:15.185Z,99.90
2019-05-11T06:37:42.726Z,99.90
2019-05-11T06:40:10.288Z,99.90
2019-05-11T06:42:37.840Z,99.90
2019-05-11T06:45:08.423Z,99.90
2019-05-11T06:47:35.964Z,99.90
2019-05-11T06:50:03.798Z,99.90
2019-05-11T06:52:31.352Z,99.90
2019-05-11T06:54:58.901Z,99.90
2019-05-11T06:57:26.466Z,99.90
2019-05-11T06:59:54.035Z,99.90
2019-05-11T07:02:21.589Z,99.90
2019-05-11T07:04:49.132Z,99.90
2019-05-11T07:07:16.685Z,99.90
2019-05-11T07:09:44.227Z,99.90
2019-05-11T07:12:11.858Z,99.90
2019-05-11T07:14:39.420Z,99.90
2019-05-11T07:17:06.951Z,99.90
2019-05-11T07:19:34.593Z,99.90
2019-05-11T07:22:02.127Z,99.90
2019-05-11T07:24:29.677Z,99.90
2019-05-11T07:26:57.228Z,99.90
2019-05-11T07:29:24.788Z,99.90
2019-05-11T07:31:52.338Z,99.90
2019-05-11T07:34:19.884Z,99.90
2019-05-11T07:36:47.742Z,99.90
2019-05-11T07:39:15.356Z,99.90
2019-05-11T07:41:42.923Z,99.90
2019-05-11T07:44:10.490Z,99.90
2019-05-11T07:46:38.030Z,99.90
2019-05-11T07:49:05.576Z,99.90
2019-05-11T07:51:33.154Z,99.90
2019-05-11T07:54:00.693Z,99.90
2019-05-11T07:56:28.646Z,99.90
2019-05-11T07:58:58.075Z,99.90
2019-05-11T08:01:27.950Z,99.90
2019-05-11T08:03:54.864Z,99.90
2019-05-11T08:06:22.409Z,99.90
2019-05-11T08:08:49.968Z,99.90
2019-05-11T08:11:18.266Z,99.90
2019-05-11T08:13:48.156Z,99.90
2019-05-11T08:16:15.308Z,99.90
2019-05-11T08:18:42.851Z,99.90
2019-05-11T08:21:10.385Z,99.90
2019-05-11T08:23:37.956Z,99.90
2019-05-11T08:26:05.485Z,99.90
2019-05-11T08:28:33.089Z,99.90
2019-05-11T08:31:00.628Z,99.90
2019-05-11T08:33:28.518Z,99.90
2019-05-11T08:35:58.205Z,99.90
2019-05-11T08:38:25.418Z,99.90
2019-05-11T08:40:52.962Z,99.90
2019-05-11T08:43:20.506Z,99.90
2019-05-11T08:45:48.641Z,99.90
2019-05-11T08:48:18.544Z,99.90
2019-05-11T08:50:45.570Z,99.90
2019-05-11T08:53:13.234Z,99.90
2019-05-11T08:55:40.778Z,99.90
2019-05-11T08:58:08.325Z,99.90
2019-05-11T09:00:35.931Z,99.90
2019-05-11T09:03:03.470Z,99.90
2019-05-11T09:05:31.299Z,99.90
2019-05-11T09:07:58.846Z,99.90
2019-05-11T09:10:28.140Z,99.90
2019-05-11T09:12:55.692Z,99.90
2019-05-11T09:15:33.631Z,99.90
2019-05-11T09:17:52.525Z,99.90
2019-05-11T09:20:20.055Z,99.90
2019-05-11T09:22:48.460Z,99.90
2019-05-11T09:25:18.328Z,99.90
2019-05-11T09:27:48.044Z,99.90
2019-05-11T09:30:14.920Z,99.90
2019-05-11T09:32:42.484Z,99.90
2019-05-11T09:35:10.018Z,99.90
2019-05-11T09:37:38.190Z,99.90
2019-05-11T09:40:07.870Z,99.90
2019-05-11T09:42:35.170Z,99.90
2019-05-11T09:45:02.707Z,99.90
2019-05-11T09:47:30.238Z,98.00
2019-05-11T09:49:58.319Z,98.80
2019-05-11T09:52:27.683Z,97.50
2019-05-11T09:54:55.233Z,91.30
2019-05-11T09:57:22.788Z,93.70
2019-05-11T09:59:50.347Z,90.00
2019-05-11T10:02:20.951Z,66.30
2019-05-11T10:04:48.445Z,59.00
2019-05-11T10:07:18.074Z,58.90
2019-05-11T10:09:47.735Z,55.00
2019-05-11T10:12:14.690Z,56.30
2019-05-11T10:14:42.242Z,52.80
2019-05-11T10:17:09.871Z,53.30
2019-05-11T10:19:39.481Z,49.20
2019-05-11T10:22:08.052Z,48.80
2019-05-11T10:24:38.320Z,46.60
2019-05-11T10:27:05.093Z,41.10
2019-05-11T10:29:34.037Z,41.90
2019-05-11T10:32:01.697Z,44.80
2019-05-11T10:34:29.254Z,49.20
2019-05-11T10:36:57.965Z,51.30
2019-05-11T10:39:27.720Z,54.20
2019-05-11T10:41:54.986Z,54.30
2019-05-11T10:44:22.569Z,54.90
2019-05-11T10:46:50.107Z,54.90
2019-05-11T10:49:18.509Z,57.60
2019-05-11T10:51:48.467Z,58.70
2019-05-11T10:54:15.554Z,56.50
2019-05-11T10:56:43.177Z,54.40
2019-05-11T10:59:10.719Z,52.60
2019-05-11T11:01:38.303Z,51.80
2019-05-11T11:04:07.817Z,51.90
2019-05-11T11:06:35.100Z,49.80
2019-05-11T11:09:02.740Z,52.10
2019-05-11T11:11:30.284Z,55.40
2019-05-11T11:13:58.492Z,53.70
2019-05-11T11:16:36.695Z,56.40
2019-05-11T11:18:55.675Z,54.30
2019-05-11T11:21:23.221Z,53.40
2019-05-11T11:23:50.783Z,55.60
2019-05-11T11:26:18.632Z,54.80
2019-05-11T11:28:47.788Z,54.40
2019-05-11T11:31:18.378Z,53.80
2019-05-11T11:33:45.028Z,55.80
2019-05-11T11:36:12.608Z,55.50
2019-05-11T11:38:40.295Z,56.50
2019-05-11T11:41:07.858Z,52.50
2019-05-11T11:43:37.521Z,52.70
2019-05-11T11:46:04.781Z,49.60
2019-05-11T11:48:32.311Z,51.90
2019-05-11T11:50:59.955Z,50.40
2019-05-11T11:53:28.059Z,49.70
2019-05-11T11:55:55.624Z,50.50
2019-05-11T11:58:24.029Z,52.40
2019-05-11T12:00:51.676Z,53.50
2019-05-11T12:03:19.239Z,53.30
2019-05-11T12:05:47.686Z,54.30
2019-05-11T12:08:15.538Z,56.90
2019-05-11T12:10:43.175Z,54.70
2019-05-11T12:13:10.703Z,51.90
2019-05-11T12:15:38.735Z,50.60
2019-05-11T12:18:08.253Z,53.10
2019-05-11T12:20:38.762Z,54.30
2019-05-11T12:23:05.516Z,54.10
2019-05-11T12:25:33.046Z,52.90
2019-05-11T12:28:00.654Z,53.90
2019-05-11T12:30:28.629Z,54.30
2019-05-11T12:32:57.716Z,55.40
2019-05-11T12:35:25.502Z,59.10
2019-05-11T12:37:53.081Z,59.20
2019-05-11T12:40:20.627Z,58.70
2019-05-11T12:42:49.033Z,53.80
2019-05-11T12:45:18.168Z,51.20
2019-05-11T12:47:48.025Z,47.90
2019-05-11T12:50:15.278Z,47.50
2019-05-11T12:52:42.819Z,47.50
2019-05-11T12:55:10.733Z,40.00
2019-05-11T12:57:38.760Z,35.40
2019-05-11T13:00:08.552Z,35.90
2019-05-11T13:02:35.792Z,38.40
2019-05-11T13:05:05.474Z,42.20
2019-05-11T13:07:33.011Z,42.20
2019-05-11T13:10:00.571Z,39.10
2019-05-11T13:12:28.118Z,34.00
2019-05-11T13:14:57.888Z,31.90
2019-05-11T13:17:36.576Z,32.20
2019-05-11T13:20:13.712Z,29.10
2019-05-11T13:22:41.242Z,28.80
2019-05-11T13:25:08.916Z,26.20
2019-05-11T13:27:38.575Z,26.40
2019-05-11T13:30:27.838Z,28.50
2019-05-11T13:32:57.871Z,29.90
2019-05-11T13:35:24.930Z,32.80
2019-05-11T13:37:52.554Z,37.20
2019-05-11T13:40:20.126Z,41.10
2019-05-11T13:42:49.054Z,47.80
2019-05-11T13:45:17.732Z,52.10
2019-05-11T13:47:52.528Z,55.30
2019-05-11T13:50:14.859Z,70.00
2019-05-11T13:52:42.502Z,85.10
2019-05-11T13:55:10.110Z,98.10
2019-05-11T13:57:57.870Z,98.10
2019-05-11T14:00:25.630Z,94.70
2019-05-11T14:02:54.317Z,95.30
2019-05-11T14:05:21.974Z,99.60
2019-05-11T14:07:49.563Z,97.70
2019-05-11T14:10:18.077Z,99.90
2019-05-11T14:12:47.717Z,99.90
2019-05-11T14:15:15.386Z,99.90
2019-05-11T14:17:42.926Z,99.90
2019-05-11T14:20:10.595Z,99.90
2019-05-11T14:22:38.760Z,99.70
2019-05-11T14:25:08.095Z,99.90
2019-05-11T14:27:35.960Z,97.30
2019-05-11T14:30:05.300Z,94.20
2019-05-11T14:32:33.014Z,96.60
2019-05-11T14:35:00.580Z,93.40
2019-05-11T14:37:28.634Z,96.20
2019-05-11T14:39:58.363Z,95.50
2019-05-11T14:42:25.694Z,95.70
2019-05-11T14:44:53.250Z,95.40
2019-05-11T14:47:20.771Z,97.60
2019-05-11T14:49:48.439Z,99.90
2019-05-11T14:52:16.049Z,99.90
2019-05-11T14:54:43.629Z,99.90
2019-05-11T14:57:11.182Z,99.90
2019-05-11T14:59:38.726Z,99.90
2019-05-11T15:02:24.280Z,99.90
2019-05-11T15:04:51.855Z,99.90
2019-05-11T15:07:19.464Z,99.90
2019-05-11T15:09:48.045Z,99.90
2019-05-11T15:12:17.982Z,99.90
2019-05-11T15:14:45.012Z,99.90
2019-05-11T15:17:12.609Z,99.90
2019-05-11T15:19:40.189Z,99.90
2019-05-11T15:22:08.660Z,99.90
2019-05-11T15:24:38.463Z,99.90
2019-05-11T15:27:05.630Z,99.90
2019-05-11T15:29:52.710Z,99.90
2019-05-11T15:32:20.274Z,99.90
2019-05-11T15:34:48.715Z,99.90
2019-05-11T15:37:17.796Z,99.90
2019-05-11T15:39:45.565Z,99.90
2019-05-11T15:42:16.965Z,99.90
2019-05-11T15:44:42.512Z,99.90
2019-05-11T15:47:10.093Z,99.90
2019-05-11T15:49:39.772Z,99.90
2019-05-11T15:52:08.152Z,99.90
2019-05-11T15:54:36.003Z,99.90
2019-05-11T15:57:05.297Z,99.90
2019-05-11T15:59:32.840Z,99.90
2019-05-11T16:02:00.431Z,99.90
2019-05-11T16:04:28.193Z,99.90
2019-05-11T16:06:57.524Z,99.90
2019-05-11T16:09:25.161Z,99.90
2019-05-11T16:11:52.752Z,99.90
2019-05-11T16:14:20.312Z,99.90
2019-05-11T16:16:48.133Z,99.90
2019-05-11T16:19:15.733Z,99.90
2019-05-11T16:21:43.397Z,99.90
2019-05-11T16:24:10.947Z,99.90
2019-05-11T16:26:38.493Z,99.90
2019-05-11T16:29:11.026Z,99.90
2019-05-11T16:31:37.717Z,99.90
2019-05-11T16:34:04.600Z,99.90
2019-05-11T16:36:32.186Z,99.90
2019-05-11T16:38:59.754Z,99.90
2019-05-11T16:41:29.152Z,99.90
2019-05-11T16:43:58.631Z,99.90
2019-05-11T16:46:28.176Z,99.90
2019-05-11T16:48:55.142Z,99.90
2019-05-11T16:51:22.688Z,99.90
2019-05-11T16:53:50.255Z,99.90
2019-05-11T16:56:19.691Z,99.90
2019-05-11T16:58:48.446Z,99.90
2019-05-11T17:01:18.632Z,99.90
2019-05-11T17:03:45.406Z,99.90
2019-05-11T17:06:12.935Z,99.90
2019-05-11T17:08:40.490Z,99.90
2019-05-11T17:11:08.370Z,99.90
2019-05-11T17:13:37.887Z,99.90
2019-05-11T17:16:05.241Z,99.90
2019-05-11T17:18:32.784Z,99.90
2019-05-11T17:21:00.358Z,99.90
2019-05-11T17:23:30.819Z,99.90
2019-05-11T17:25:57.875Z,99.90
2019-05-11T17:28:25.763Z,99.90
2019-05-11T17:30:53.304Z,99.90
2019-05-11T17:33:20.870Z,99.90
2019-05-11T17:35:48.407Z,99.90
2019-05-11T17:38:18.283Z,99.90
2019-05-11T17:40:45.244Z,99.90
2019-05-11T17:43:12.778Z,99.90
2019-05-11T17:45:40.353Z,99.90
2019-05-11T17:48:08.435Z,99.90
2019-05-11T17:50:38.206Z,99.90
2019-05-11T17:53:05.497Z,99.90
2019-05-11T17:55:33.024Z,99.90
2019-05-11T17:58:00.578Z,99.90
2019-05-11T18:00:28.482Z,99.90
2019-05-11T18:02:58.343Z,99.90
2019-05-11T18:05:25.478Z,99.90
2019-05-11T18:07:53.037Z,99.90
2019-05-11T18:10:20.582Z,99.90
2019-05-11T18:12:48.791Z,99.90
2019-05-11T18:15:18.575Z,99.90
2019-05-11T18:17:48.190Z,99.90
2019-05-11T18:20:20.539Z,99.90
2019-05-11T18:22:44.398Z,99.90
2019-05-11T18:25:14.070Z,99.90
2019-05-11T18:27:41.216Z,99.90
2019-05-11T18:30:09.031Z,99.90
2019-05-11T18:32:39.073Z,99.90
2019-05-11T18:35:08.170Z,99.90
2019-05-11T18:37:35.153Z,99.90
2019-05-11T18:40:03.152Z,99.90
2019-05-11T18:42:30.694Z,99.90
2019-05-11T18:45:00.226Z,99.90
2019-05-11T18:47:29.763Z,99.90
2019-05-11T18:49:58.796Z,99.90
2019-05-11T18:52:26.098Z,99.90
2019-05-11T18:54:53.657Z,99.90
2019-05-11T18:57:21.201Z,99.90
2019-05-11T18:59:48.746Z,99.90
2019-05-11T19:02:16.297Z,99.90
2019-05-11T19:04:43.955Z,99.90
2019-05-11T19:07:16.145Z,99.90
2019-05-11T19:09:40.808Z,99.90
2019-05-11T19:12:08.715Z,99.90
2019-05-11T19:14:38.501Z,99.90
2019-05-11T19:17:07.555Z,99.90
2019-05-11T19:19:34.938Z,99.90
2019-05-11T19:22:02.514Z,99.90
2019-05-11T19:24:30.146Z,99.90
2019-05-11T19:26:58.819Z,99.90
2019-05-11T19:29:28.305Z,99.90
2019-05-11T19:31:57.932Z,99.90
2019-05-11T19:34:25.086Z,99.90
2019-05-11T19:36:52.802Z,99.90
2019-05-11T19:39:20.375Z,99.90
2019-05-11T19:41:48.088Z,99.90
2019-05-11T19:44:15.628Z,99.90
2019-05-11T19:46:43.210Z,99.90
2019-05-11T19:49:10.748Z,99.90
2019-05-11T19:51:42.297Z,99.90
2019-05-11T19:54:08.469Z,99.90
2019-05-11T19:56:38.410Z,99.90
2019-05-11T19:59:05.590Z,99.90
2019-05-11T20:01:33.135Z,99.90
2019-05-11T20:04:00.761Z,99.90
2019-05-11T20:06:28.332Z,99.90
2019-05-11T20:08:57.730Z,99.90
2019-05-11T20:11:25.204Z,99.90
2019-05-11T20:13:52.786Z,99.90
2019-05-11T20:16:20.697Z,99.90
2019-05-11T20:18:48.246Z,99.90
2019-05-11T20:21:20.255Z,99.90
2019-05-11T20:23:45.244Z,99.90
2019-05-11T20:26:12.806Z,99.90
2019-05-11T20:28:40.415Z,99.90
2019-05-11T20:31:08.178Z,99.90
2019-05-11T20:33:35.858Z,99.90
2019-05-11T20:36:03.437Z,99.90
2019-05-11T20:38:30.981Z,99.90
2019-05-11T20:40:58.829Z,99.90
2019-05-11T20:43:27.871Z,99.90
2019-05-11T20:45:56.272Z,99.90
2019-05-11T20:48:23.976Z,99.90
2019-05-11T20:50:51.524Z,99.90
2019-05-11T20:53:19.062Z,99.90
2019-05-11T20:55:47.805Z,99.90
2019-05-11T20:58:18.539Z,99.90
2019-05-11T21:00:45.046Z,99.90
2019-05-11T21:03:12.596Z,99.90
2019-05-11T21:05:40.188Z,99.90
2019-05-11T21:08:08.521Z,99.90
2019-05-11T21:10:38.535Z,99.90
2019-05-11T21:13:05.619Z,99.90
2019-05-11T21:15:33.290Z,99.90
2019-05-11T21:18:00.899Z,99.90
2019-05-11T21:20:28.983Z,99.90
2019-05-11T21:22:57.995Z,99.90
2019-05-11T21:25:25.741Z,99.90
2019-05-11T21:27:53.316Z,99.90
2019-05-11T21:30:20.881Z,99.90
2019-05-11T21:32:48.534Z,99.90
2019-05-11T21:35:16.107Z,99.90
2019-05-11T21:37:43.730Z,99.90
2019-05-11T21:40:11.354Z,99.90
2019-05-11T21:42:39.326Z,99.90
2019-05-11T21:45:09.248Z,99.90
2019-05-11T21:47:38.630Z,99.90
2019-05-11T21:50:08.290Z,99.90
2019-05-11T21:52:38.156Z,99.90
2019-05-11T21:55:09.398Z,99.90
2019-05-11T21:57:37.435Z,99.90
2019-05-11T22:00:08.815Z,99.90
2019-05-11T22:02:38.159Z,99.90
2019-05-11T22:05:05.612Z,99.90
2019-05-11T22:07:33.286Z,99.90
2019-05-11T22:10:00.927Z,99.90
2019-05-11T22:12:28.554Z,99.90
2019-05-11T22:14:57.871Z,99.90
2019-05-11T22:17:27.934Z,99.90
2019-05-11T22:19:55.048Z,99.90
2019-05-11T22:22:25.417Z,99.90
2019-05-11T22:24:51.875Z,99.90
2019-05-11T22:27:19.410Z,99.90
2019-05-11T22:29:48.452Z,99.90
2019-05-11T22:32:17.867Z,99.90
2019-05-11T22:34:47.850Z,99.90
2019-05-11T22:37:14.743Z,99.90
2019-05-11T22:39:42.317Z,99.90
2019-05-11T22:42:09.881Z,99.90
2019-05-11T22:44:38.615Z,99.90
2019-05-11T22:47:08.785Z,99.90
2019-05-11T22:49:35.699Z,99.90
2019-05-11T22:52:04.137Z,99.90
2019-05-11T22:54:31.682Z,99.90
2019-05-11T22:56:59.220Z,99.90
2019-05-11T22:59:28.084Z,99.90
2019-05-11T23:01:55.796Z,99.90
2019-05-11T23:04:23.348Z,99.90
2019-05-11T23:06:50.891Z,99.90
2019-05-11T23:09:18.571Z,99.90
2019-05-11T23:11:48.141Z,99.90
2019-05-11T23:14:17.758Z,99.90
2019-05-11T23:16:44.770Z,99.90
2019-05-11T23:19:12.373Z,99.90
2019-05-11T23:21:39.944Z,99.90
2019-05-11T23:24:07.687Z,99.90
2019-05-11T23:26:35.312Z,99.90
2019-05-11T23:29:02.898Z,99.90
2019-05-11T23:31:30.458Z,99.90
2019-05-11T23:33:58.064Z,99.90
2019-05-11T23:36:28.023Z,99.90
2019-05-11T23:38:54.886Z,99.90
2019-05-11T23:41:24.535Z,99.90
2019-05-11T23:43:51.694Z,99.90
2019-05-11T23:46:19.261Z,99.90
2019-05-11T23:48:48.629Z,99.90
2019-05-11T23:51:18.148Z,99.90
2019-05-11T23:53:45.383Z,99.90
2019-05-11T23:56:12.907Z,99.90
2019-05-11T23:58:40.442Z,99.90
